Time;durP1;ratioP1;P1;durP2;ratioP2;P2;SDS_P1;SDS_P2;PMS_P1;PMS_P2;Temp;Humidity;BMP_temperature;BMP_pressure;BME280_temperature;BME280_humidity;BME280_pressure;Samples;Min_cycle;Max_cycle;Signal;HPM_P1;HPM_P2
2024/02/20 00:00:36;;;;;;;25.45;4.68;;;10.20;99.90;;;;;;2084175;28;20036;-67
2024/02/20 00:01:37;;;;;;;24.17;5.30;;;10.20;99.90;;;;;;2084602;28;20053;-66
2024/02/20 00:02:40;;;;;;;27.08;5.38;;;10.20;99.90;;;;;;2083696;28;20104;-67
2024/02/20 00:03:41;;;;;;;22.80;4.93;;;10.20;99.90;;;;;;2083522;28;20026;-68
2024/02/20 00:04:42;;;;;;;26.73;5.95;;;10.20;99.90;;;;;;2084481;28;20057;-67
2024/02/20 00:05:42;;;;;;;29.05;6.43;;;10.20;99.90;;;;;;2086024;28;20075;-67
2024/02/20 00:06:43;;;;;;;25.80;5.90;;;10.20;99.90;;;;;;2083738;28;20029;-67
2024/02/20 00:07:44;;;;;;;26.35;5.22;;;10.20;99.90;;;;;;2084930;28;20131;-67
2024/02/20 00:08:44;;;;;;;27.73;5.50;;;10.30;99.90;;;;;;2085982;28;20751;-67
2024/02/20 00:09:47;;;;;;;29.90;6.22;;;10.20;99.90;;;;;;2083922;28;20438;-67
2024/02/20 00:10:48;;;;;;;24.88;5.78;;;10.20;99.90;;;;;;2084251;28;20029;-67
2024/02/20 00:11:48;;;;;;;27.15;5.80;;;10.20;99.90;;;;;;2085408;28;20029;-67
2024/02/20 00:12:49;;;;;;;26.70;5.95;;;10.20;99.90;;;;;;2084185;28;20056;-67
2024/02/20 00:13:49;;;;;;;26.90;5.82;;;10.20;99.90;;;;;;2085330;28;20028;-67
2024/02/20 00:14:50;;;;;;;20.05;4.80;;;10.20;99.90;;;;;;2083658;28;20098;-67
2024/02/20 00:15:50;;;;;;;25.42;5.90;;;10.20;99.90;;;;;;2085470;28;20048;-67
2024/02/20 00:16:52;;;;;;;23.45;5.00;;;10.20;99.90;;;;;;2084766;28;20028;-68
2024/02/20 00:17:53;;;;;;;24.77;5.65;;;10.20;99.90;;;;;;2085915;28;20163;-66
2024/02/20 00:18:53;;;;;;;22.17;4.97;;;10.20;99.90;;;;;;2082559;28;20029;-67
2024/02/20 00:19:54;;;;;;;26.95;5.88;;;10.20;99.90;;;;;;2084817;28;20044;-66
2024/02/20 00:20:54;;;;;;;23.88;4.82;;;10.30;99.90;;;;;;2084277;28;20034;-68
2024/02/20 00:21:55;;;;;;;24.58;5.35;;;10.30;99.90;;;;;;2083673;28;20079;-67
2024/02/20 00:22:56;;;;;;;25.85;6.72;;;10.20;99.90;;;;;;2083881;28;20079;-67
2024/02/20 00:23:56;;;;;;;34.67;5.97;;;10.30;99.90;;;;;;2084088;28;20033;-67
2024/02/20 00:24:57;;;;;;;25.98;5.53;;;10.30;99.90;;;;;;2083991;28;20136;-67
2024/02/20 00:25:57;;;;;;;23.33;5.10;;;10.30;99.90;;;;;;2084055;28;20115;-67
2024/02/20 00:26:58;;;;;;;21.85;5.30;;;10.30;99.90;;;;;;2084598;28;20074;-67
2024/02/20 00:27:58;;;;;;;27.00;5.70;;;10.30;99.90;;;;;;2084129;28;20379;-67
2024/02/20 00:28:59;;;;;;;21.65;4.75;;;10.30;99.90;;;;;;2085143;28;20078;-68
2024/02/20 00:29:59;;;;;;;29.98;5.80;;;10.30;99.90;;;;;;2084289;28;20497;-68
2024/02/20 00:31:00;;;;;;;25.17;5.30;;;10.30;99.90;;;;;;2082933;28;20032;-67
2024/02/20 00:32:01;;;;;;;29.25;5.72;;;10.30;99.90;;;;;;2083640;28;20063;-67
2024/02/20 00:33:01;;;;;;;20.67;5.43;;;10.30;99.90;;;;;;2085056;28;20029;-67
2024/02/20 00:34:02;;;;;;;19.70;5.18;;;10.20;99.90;;;;;;2082561;28;20029;-67
2024/02/20 00:35:04;;;;;;;34.90;5.90;;;10.20;99.90;;;;;;2082780;28;20032;-68
2024/02/20 00:36:08;;;;;;;28.88;5.85;;;10.20;99.90;;;;;;2085816;28;20021;-67
2024/02/20 00:37:09;;;;;;;30.23;7.03;;;10.20;99.90;;;;;;2085278;28;20054;-67
2024/02/20 00:38:09;;;;;;;22.00;5.22;;;10.20;99.90;;;;;;2086149;28;20017;-67
2024/02/20 00:39:12;;;;;;;23.52;5.68;;;10.30;99.90;;;;;;2084528;28;20119;-66
2024/02/20 00:40:13;;;;;;;22.45;4.97;;;10.30;99.90;;;;;;2081923;28;20080;-67
2024/02/20 00:41:13;;;;;;;28.15;4.95;;;10.30;99.90;;;;;;2083219;28;20087;-67
2024/02/20 00:42:14;;;;;;;27.98;6.20;;;10.30;99.90;;;;;;2082760;28;20052;-67
2024/02/20 00:43:14;;;;;;;21.92;5.10;;;10.30;99.90;;;;;;2083781;28;20013;-68
2024/02/20 00:44:15;;;;;;;27.73;7.22;;;10.30;99.90;;;;;;2085119;28;20584;-68
2024/02/20 00:45:16;;;;;;;24.25;6.03;;;10.30;99.90;;;;;;2084477;28;20032;-67
2024/02/20 00:46:21;;;;;;;23.92;5.47;;;10.30;99.90;;;;;;2084217;28;20116;-67
2024/02/20 00:47:21;;;;;;;25.58;6.55;;;10.30;99.90;;;;;;2089960;28;20576;-67
2024/02/20 00:48:22;;;;;;;30.75;5.60;;;10.20;99.90;;;;;;2091420;28;20048;-67
2024/02/20 00:49:23;;;;;;;31.60;6.32;;;10.30;99.90;;;;;;2083274;28;20026;-67
2024/02/20 00:50:24;;;;;;;27.17;5.45;;;10.30;99.90;;;;;;2084395;28;20132;-67
2024/02/20 00:51:24;;;;;;;24.52;5.60;;;10.30;99.90;;;;;;2083371;28;20025;-67
2024/02/20 00:52:25;;;;;;;25.30;5.78;;;10.20;99.90;;;;;;2083872;28;20071;-67
2024/02/20 00:53:25;;;;;;;28.23;5.68;;;10.30;99.90;;;;;;2084952;28;20708;-67
2024/02/20 00:54:26;;;;;;;32.63;6.55;;;10.30;99.90;;;;;;2082743;28;20405;-67
2024/02/20 00:55:26;;;;;;;31.30;6.15;;;10.20;99.90;;;;;;2084387;28;20060;-66
2024/02/20 00:56:27;;;;;;;26.88;5.63;;;10.20;99.90;;;;;;2083527;28;20021;-67
2024/02/20 00:57:27;;;;;;;27.35;6.10;;;10.20;99.90;;;;;;2084732;28;20037;-67
2024/02/20 00:58:28;;;;;;;26.85;5.68;;;10.20;99.90;;;;;;2084759;28;20021;-67
2024/02/20 00:59:29;;;;;;;26.88;5.97;;;10.20;99.90;;;;;;2085034;28;20379;-67
2024/02/20 01:00:30;;;;;;;24.77;5.88;;;10.20;99.90;;;;;;2083232;28;20025;-66
2024/02/20 01:01:31;;;;;;;26.00;6.07;;;10.20;99.90;;;;;;2083820;28;20041;-68
2024/02/20 01:02:31;;;;;;;25.95;5.43;;;10.20;99.90;;;;;;2083156;28;20021;-67
2024/02/20 01:03:32;;;;;;;31.98;7.40;;;10.20;99.90;;;;;;2083902;28;20425;-67
2024/02/20 01:04:32;;;;;;;28.25;6.15;;;10.20;99.90;;;;;;2083664;28;20096;-66
2024/02/20 01:05:33;;;;;;;23.48;6.10;;;10.20;99.90;;;;;;2083859;28;20104;-68
2024/02/20 01:06:36;;;;;;;28.65;6.40;;;10.10;99.90;;;;;;2084223;28;20033;-67
2024/02/20 01:07:38;;;;;;;23.10;6.00;;;10.20;99.90;;;;;;2085400;28;20025;-66
2024/02/20 01:08:39;;;;;;;30.02;6.85;;;10.10;99.90;;;;;;2084799;28;20120;-67
2024/02/20 01:09:40;;;;;;;37.80;7.22;;;10.20;99.90;;;;;;2083596;28;20413;-67
2024/02/20 01:10:40;;;;;;;28.15;7.03;;;10.20;99.90;;;;;;2083334;28;20029;-68
2024/02/20 01:11:42;;;;;;;28.88;6.50;;;10.20;99.90;;;;;;2083640;28;20067;-67
2024/02/20 01:12:42;;;;;;;22.27;6.55;;;10.20;99.90;;;;;;2082836;28;20043;-66
2024/02/20 01:13:43;;;;;;;30.55;5.95;;;10.10;99.90;;;;;;2084390;28;20045;-67
2024/02/20 01:14:44;;;;;;;27.55;6.10;;;10.20;99.90;;;;;;2083196;28;20048;-67
2024/02/20 01:15:45;;;;;;;23.45;5.85;;;10.20;99.90;;;;;;2082906;28;20029;-67
2024/02/20 01:16:46;;;;;;;31.02;7.07;;;10.20;99.90;;;;;;2084283;28;20034;-68
2024/02/20 01:17:46;;;;;;;25.60;5.68;;;10.10;99.90;;;;;;2083664;28;20036;-66
2024/02/20 01:18:47;;;;;;;26.42;5.80;;;10.10;99.90;;;;;;2083940;28;20034;-67
2024/02/20 01:19:47;;;;;;;26.33;6.35;;;10.10;99.90;;;;;;2083307;28;20132;-68
2024/02/20 01:20:48;;;;;;;33.30;7.10;;;10.10;99.90;;;;;;2082546;28;20048;-67
2024/02/20 01:21:48;;;;;;;28.52;6.57;;;10.10;99.90;;;;;;2085755;28;20120;-66
2024/02/20 01:22:50;;;;;;;24.65;5.97;;;10.10;99.90;;;;;;2082352;28;20386;-67
2024/02/20 01:23:51;;;;;;;28.05;6.28;;;10.10;99.90;;;;;;2085906;28;20075;-67
2024/02/20 01:24:51;;;;;;;24.00;5.22;;;10.10;99.90;;;;;;2085147;28;20148;-67
2024/02/20 01:25:52;;;;;;;17.55;5.15;;;10.10;99.90;;;;;;2082267;28;20057;-67
2024/02/20 01:26:57;;;;;;;27.27;6.07;;;10.10;99.90;;;;;;2084445;28;20088;-68
2024/02/20 01:27:57;;;;;;;27.17;6.43;;;10.10;99.90;;;;;;2082194;28;20017;-66
2024/02/20 01:28:58;;;;;;;23.55;5.40;;;10.10;99.90;;;;;;2086663;28;20021;-67
2024/02/20 01:29:59;;;;;;;22.38;5.35;;;10.10;99.90;;;;;;2082726;28;20029;-67
2024/02/20 01:31:00;;;;;;;25.38;6.65;;;10.10;99.90;;;;;;2083799;28;20886;-67
2024/02/20 01:32:01;;;;;;;30.27;5.90;;;10.10;99.90;;;;;;2084431;28;20467;-67
2024/02/20 01:33:02;;;;;;;26.25;6.60;;;10.20;99.90;;;;;;2084430;28;20428;-67
2024/02/20 01:34:04;;;;;;;27.60;5.90;;;10.20;99.90;;;;;;2085428;28;20032;-66
2024/02/20 01:35:06;;;;;;;26.35;6.43;;;10.20;99.90;;;;;;2084805;28;20032;-66
2024/02/20 01:36:07;;;;;;;29.65;6.03;;;10.20;99.90;;;;;;2086257;28;20033;-67
2024/02/20 01:37:07;;;;;;;25.15;6.93;;;10.20;99.90;;;;;;2085630;28;20036;-66
2024/02/20 01:38:08;;;;;;;30.88;6.60;;;10.10;99.90;;;;;;2086473;28;20021;-66
2024/02/20 01:39:08;;;;;;;26.17;5.72;;;10.20;99.90;;;;;;2086073;28;20017;-66
2024/02/20 01:40:09;;;;;;;30.20;6.20;;;10.20;99.90;;;;;;2085895;28;20021;-67
2024/02/20 01:41:10;;;;;;;28.48;5.38;;;10.20;99.90;;;;;;2086466;28;20484;-66
2024/02/20 01:42:11;;;;;;;24.45;6.30;;;10.20;99.90;;;;;;2085259;28;20074;-67
2024/02/20 01:43:13;;;;;;;31.98;5.97;;;10.20;99.90;;;;;;2085319;28;20021;-68
2024/02/20 01:44:14;;;;;;;26.85;6.25;;;10.20;99.90;;;;;;2080954;28;20454;-65
2024/02/20 01:45:14;;;;;;;35.17;8.35;;;10.20;99.90;;;;;;2087815;28;20130;-66
2024/02/20 01:46:22;;;;;;;30.25;6.70;;;10.20;99.90;;;;;;2085234;28;20051;-66
2024/02/20 01:47:23;;;;;;;28.67;6.32;;;10.20;99.90;;;;;;2078796;28;20117;-66
2024/02/20 01:48:23;;;;;;;30.23;7.07;;;10.20;99.90;;;;;;2079665;28;20128;-65
2024/02/20 01:49:25;;;;;;;25.70;6.32;;;10.20;99.90;;;;;;2084927;28;20025;-65
2024/02/20 01:50:25;;;;;;;37.53;7.00;;;10.10;99.90;;;;;;2086191;28;20426;-66
2024/02/20 01:51:32;;;;;;;35.83;6.82;;;10.10;99.90;;;;;;2084865;28;20484;-65
2024/02/20 01:52:33;;;;;;;32.58;7.03;;;10.10;99.90;;;;;;2087185;28;20036;-66
2024/02/20 01:53:34;;;;;;;30.13;6.35;;;10.10;99.90;;;;;;2087345;28;20036;-68
2024/02/20 01:54:38;;;;;;;29.05;7.05;;;10.10;99.90;;;;;;2085334;28;20095;-67
2024/02/20 01:55:39;;;;;;;31.40;7.35;;;10.10;99.90;;;;;;2086108;28;20121;-67
2024/02/20 01:56:41;;;;;;;25.83;6.85;;;10.10;99.90;;;;;;2086139;28;20036;-68
2024/02/20 01:57:43;;;;;;;30.90;7.38;;;10.10;99.90;;;;;;2085167;28;20039;-66
2024/02/20 01:58:44;;;;;;;32.03;6.97;;;10.10;99.90;;;;;;2085983;28;20735;-65
2024/02/20 01:59:45;;;;;;;27.73;7.35;;;10.00;99.90;;;;;;2084506;28;20056;-66
2024/02/20 02:00:46;;;;;;;28.88;7.10;;;10.10;99.90;;;;;;2084864;28;20047;-66
2024/02/20 02:01:48;;;;;;;25.13;6.07;;;10.10;99.90;;;;;;2084441;28;20021;-65
2024/02/20 02:02:49;;;;;;;34.42;8.02;;;10.00;99.90;;;;;;2084189;28;20033;-65
2024/02/20 02:03:49;;;;;;;27.25;7.03;;;10.00;99.90;;;;;;2086081;28;20025;-65
2024/02/20 02:04:50;;;;;;;30.10;6.70;;;10.00;99.90;;;;;;2085264;28;20037;-65
2024/02/20 02:05:50;;;;;;;36.55;7.55;;;10.00;99.90;;;;;;2084954;28;20021;-65
2024/02/20 02:06:51;;;;;;;37.95;9.20;;;10.00;99.90;;;;;;2086759;28;20026;-66
2024/02/20 02:07:52;;;;;;;36.90;6.95;;;10.00;99.90;;;;;;2086275;28;20108;-64
2024/02/20 02:08:53;;;;;;;32.20;6.65;;;10.00;99.90;;;;;;2087082;28;20036;-65
2024/02/20 02:09:53;;;;;;;34.40;7.13;;;10.00;99.90;;;;;;2085656;28;20021;-65
2024/02/20 02:10:54;;;;;;;24.42;6.95;;;10.00;99.90;;;;;;2084633;28;20079;-65
2024/02/20 02:11:55;;;;;;;27.52;7.45;;;10.00;99.90;;;;;;2084694;28;20021;-65
2024/02/20 02:12:55;;;;;;;33.50;7.40;;;10.00;99.90;;;;;;2086570;28;20461;-66
2024/02/20 02:13:56;;;;;;;33.28;7.35;;;10.00;99.90;;;;;;2084551;28;20644;-66
2024/02/20 02:14:56;;;;;;;28.38;6.93;;;10.00;99.90;;;;;;2081231;28;20061;-66
2024/02/20 02:15:57;;;;;;;33.20;7.00;;;10.00;99.90;;;;;;2084291;28;20100;-66
2024/02/20 02:16:57;;;;;;;37.33;7.88;;;10.00;99.90;;;;;;2083083;28;20022;-65
2024/02/20 02:17:58;;;;;;;28.50;6.30;;;10.00;99.90;;;;;;2085657;28;20370;-66
2024/02/20 02:18:59;;;;;;;31.85;7.18;;;10.00;99.90;;;;;;2082678;28;20025;-66
2024/02/20 02:20:00;;;;;;;34.75;6.95;;;10.00;99.90;;;;;;2086181;28;20042;-65
2024/02/20 02:21:00;;;;;;;26.67;6.00;;;10.00;99.90;;;;;;2085040;28;20036;-65
2024/02/20 02:22:01;;;;;;;26.17;5.82;;;10.00;99.90;;;;;;2084542;28;20027;-65
2024/02/20 02:23:01;;;;;;;28.80;7.13;;;10.00;99.90;;;;;;2086880;28;20583;-65
2024/02/20 02:24:02;;;;;;;33.20;6.40;;;10.00;99.90;;;;;;2085919;28;20458;-65
2024/02/20 02:25:03;;;;;;;33.38;6.28;;;10.00;99.90;;;;;;2085652;28;20034;-65
2024/02/20 02:26:10;;;;;;;26.17;6.25;;;10.00;99.90;;;;;;2086575;28;20009;-66
2024/02/20 02:27:11;;;;;;;31.00;7.13;;;10.00;99.90;;;;;;2083975;28;20022;-66
2024/02/20 02:28:12;;;;;;;40.30;7.25;;;10.00;99.90;;;;;;2084574;28;20452;-65
2024/02/20 02:29:12;;;;;;;26.13;5.88;;;10.00;99.90;;;;;;2083522;28;20064;-65
2024/02/20 02:30:14;;;;;;;28.98;6.03;;;10.00;99.90;;;;;;2085555;28;20017;-67
2024/02/20 02:31:16;;;;;;;31.52;7.57;;;10.00;99.90;;;;;;2086343;28;20047;-66
2024/02/20 02:32:17;;;;;;;33.33;5.93;;;10.00;99.90;;;;;;2084733;28;20524;-66
2024/02/20 02:33:17;;;;;;;35.05;7.18;;;10.00;99.90;;;;;;2084205;28;20029;-65
2024/02/20 02:34:18;;;;;;;40.22;7.60;;;9.90;99.90;;;;;;2084505;28;20519;-65
2024/02/20 02:35:18;;;;;;;28.83;6.32;;;10.00;99.90;;;;;;2083652;28;20148;-66
2024/02/20 02:36:19;;;;;;;33.42;6.47;;;9.90;99.90;;;;;;2084417;28;20055;-66
2024/02/20 02:37:19;;;;;;;23.90;5.75;;;9.90;99.90;;;;;;2086541;28;20086;-66
2024/02/20 02:38:20;;;;;;;34.10;8.25;;;9.90;99.90;;;;;;2088641;28;20036;-66
2024/02/20 02:39:22;;;;;;;28.73;7.78;;;9.90;99.90;;;;;;2085651;28;20108;-65
2024/02/20 02:40:23;;;;;;;31.15;6.78;;;9.90;99.90;;;;;;2084290;28;20052;-65
2024/02/20 02:41:24;;;;;;;28.05;6.80;;;9.90;99.90;;;;;;2084961;28;20037;-66
2024/02/20 02:42:25;;;;;;;32.70;7.43;;;10.00;99.90;;;;;;2084702;28;20393;-66
2024/02/20 02:43:26;;;;;;;28.15;7.20;;;9.90;99.90;;;;;;2082645;28;20045;-68
2024/02/20 02:44:26;;;;;;;35.60;7.00;;;10.00;99.90;;;;;;2085961;28;20147;-65
2024/02/20 02:45:31;;;;;;;25.00;6.38;;;10.00;99.90;;;;;;2082471;28;20466;-65
2024/02/20 02:46:31;;;;;;;30.90;7.55;;;10.00;99.90;;;;;;2087934;28;20501;-65
2024/02/20 02:47:32;;;;;;;31.08;7.32;;;9.90;99.90;;;;;;2088244;28;20638;-66
2024/02/20 02:48:33;;;;;;;30.95;8.30;;;10.00;99.90;;;;;;2083988;28;20025;-66
2024/02/20 02:49:33;;;;;;;32.25;8.40;;;10.00;99.90;;;;;;2085057;28;20498;-65
2024/02/20 02:50:34;;;;;;;34.05;8.50;;;10.00;99.90;;;;;;2086453;28;20021;-65
2024/02/20 02:51:35;;;;;;;31.83;8.82;;;10.00;99.90;;;;;;2083559;28;20067;-66
2024/02/20 02:52:36;;;;;;;29.63;9.13;;;10.00;99.90;;;;;;2083966;28;20105;-66
2024/02/20 02:53:39;;;;;;;33.00;9.38;;;10.00;99.90;;;;;;2085492;28;20033;-67
2024/02/20 02:54:40;;;;;;;33.50;10.20;;;10.00;99.90;;;;;;2085909;28;20041;-65
2024/02/20 02:55:40;;;;;;;32.65;10.20;;;10.00;99.90;;;;;;2082648;28;20025;-69
2024/02/20 02:56:41;;;;;;;38.13;10.73;;;10.00;99.90;;;;;;2085290;28;20033;-67
2024/02/20 02:57:42;;;;;;;32.50;10.38;;;10.00;99.90;;;;;;2083889;28;20032;-66
2024/02/20 02:58:43;;;;;;;34.03;10.80;;;10.00;99.90;;;;;;2084143;28;20026;-66
2024/02/20 02:59:43;;;;;;;34.60;11.02;;;9.90;99.90;;;;;;2085635;28;20033;-66
2024/02/20 03:00:44;;;;;;;35.55;11.82;;;9.90;99.90;;;;;;2084696;28;20493;-65
2024/02/20 03:01:44;;;;;;;34.45;12.30;;;9.90;99.90;;;;;;2084594;28;20432;-65
2024/02/20 03:02:46;;;;;;;34.65;12.25;;;9.90;99.90;;;;;;2086270;28;20025;-66
2024/02/20 03:03:47;;;;;;;37.28;11.82;;;9.90;99.90;;;;;;2083774;28;20029;-66
2024/02/20 03:04:47;;;;;;;35.17;12.57;;;9.90;99.90;;;;;;2086336;28;20028;-65
2024/02/20 03:05:48;;;;;;;37.28;12.60;;;9.90;99.90;;;;;;2084989;28;20017;-66
2024/02/20 03:06:50;;;;;;;40.28;13.15;;;9.90;99.90;;;;;;2086112;28;20021;-66
2024/02/20 03:07:51;;;;;;;40.58;13.50;;;9.80;99.90;;;;;;2083172;28;20059;-65
2024/02/20 03:08:52;;;;;;;36.83;12.95;;;9.90;99.90;;;;;;2086298;28;20100;-65
2024/02/20 03:09:52;;;;;;;36.47;13.13;;;9.90;99.90;;;;;;2084206;28;20545;-65
2024/02/20 03:10:53;;;;;;;37.60;13.75;;;9.90;99.90;;;;;;2084633;28;20489;-66
2024/02/20 03:11:53;;;;;;;42.13;14.10;;;9.90;99.90;;;;;;2085634;28;20024;-66
2024/02/20 03:12:55;;;;;;;39.42;14.55;;;9.90;99.90;;;;;;2086639;28;20021;-67
2024/02/20 03:13:56;;;;;;;39.38;14.27;;;9.90;99.90;;;;;;2085617;28;20033;-65
2024/02/20 03:14:57;;;;;;;34.92;13.35;;;9.90;99.90;;;;;;2085074;28;20486;-66
2024/02/20 03:15:57;;;;;;;37.63;14.32;;;9.80;99.90;;;;;;2084836;28;20021;-65
2024/02/20 03:16:58;;;;;;;40.28;14.68;;;9.80;99.90;;;;;;2083855;28;20100;-65
2024/02/20 03:17:58;;;;;;;45.70;13.77;;;9.80;99.90;;;;;;2084653;28;20029;-65
2024/02/20 03:19:01;;;;;;;47.53;14.57;;;9.80;99.90;;;;;;2087382;28;20025;-66
2024/02/20 03:20:14;;;;;;;40.53;14.43;;;9.80;99.90;;;;;;2086104;28;20428;-66
2024/02/20 03:21:16;;;;;;;44.63;14.43;;;9.80;99.90;;;;;;2084451;28;20044;-65
2024/02/20 03:22:18;;;;;;;34.20;13.00;;;9.80;99.90;;;;;;2083972;28;20462;-65
2024/02/20 03:23:19;;;;;;;44.38;13.55;;;9.80;99.90;;;;;;2085199;28;20032;-66
2024/02/20 03:24:20;;;;;;;38.75;12.23;;;9.80;99.90;;;;;;2088677;28;20048;-65
2024/02/20 03:25:21;;;;;;;43.05;14.25;;;9.80;99.90;;;;;;2087262;28;20036;-66
2024/02/20 03:26:21;;;;;;;31.05;12.45;;;9.80;99.90;;;;;;2083666;28;20032;-65
2024/02/20 03:27:22;;;;;;;34.92;12.75;;;9.80;99.90;;;;;;2084206;28;20033;-65
2024/02/20 03:28:23;;;;;;;40.45;12.70;;;9.80;99.90;;;;;;2083769;28;20067;-66
2024/02/20 03:29:24;;;;;;;37.72;12.80;;;9.80;99.90;;;;;;2084068;28;20499;-65
2024/02/20 03:30:24;;;;;;;39.95;12.57;;;9.80;99.90;;;;;;2084643;28;20359;-65
2024/02/20 03:31:25;;;;;;;37.67;11.88;;;9.80;99.90;;;;;;2085741;28;20088;-65
2024/02/20 03:32:26;;;;;;;40.90;12.52;;;9.80;99.90;;;;;;2082828;28;20029;-65
2024/02/20 03:33:29;;;;;;;36.95;12.23;;;9.70;99.90;;;;;;2084058;28;20117;-66
2024/02/20 03:34:29;;;;;;;33.47;11.55;;;9.70;99.90;;;;;;2083828;28;20043;-65
2024/02/20 03:35:30;;;;;;;41.28;11.98;;;9.70;99.90;;;;;;2082173;28;20884;-66
2024/02/20 03:36:30;;;;;;;32.70;11.48;;;9.70;99.90;;;;;;2082721;28;20428;-68
2024/02/20 03:37:31;;;;;;;35.50;11.32;;;9.70;99.90;;;;;;2085800;28;20393;-66
2024/02/20 03:38:31;;;;;;;43.55;12.85;;;9.70;99.90;;;;;;2084308;28;20490;-66
2024/02/20 03:39:32;;;;;;;30.88;10.93;;;9.70;99.90;;;;;;2082584;28;20546;-65
2024/02/20 03:40:32;;;;;;;37.97;11.20;;;9.70;99.90;;;;;;2085409;28;20031;-66
2024/02/20 03:41:33;;;;;;;35.28;11.32;;;9.70;99.90;;;;;;2083776;28;20041;-66
2024/02/20 03:43:02;;;;;;;35.50;11.27;;;9.70;99.90;;;;;;2084241;28;20029;-66
2024/02/20 03:44:03;;;;;;;41.05;11.63;;;9.70;99.90;;;;;;2083601;28;20045;-65
2024/02/20 03:45:05;;;;;;;38.90;11.05;;;9.60;99.90;;;;;;2085972;28;20537;-68
2024/02/20 03:46:07;;;;;;;32.53;10.95;;;9.60;99.90;;;;;;2084727;28;20029;-68
2024/02/20 03:47:08;;;;;;;36.75;11.65;;;9.60;99.90;;;;;;2085275;28;20028;-65
2024/02/20 03:48:08;;;;;;;37.28;11.18;;;9.60;99.90;;;;;;2084508;28;20033;-65
2024/02/20 03:49:09;;;;;;;36.25;11.32;;;9.60;99.90;;;;;;2086048;28;20930;-65
2024/02/20 03:50:09;;;;;;;38.33;11.27;;;9.60;99.90;;;;;;2084186;28;20025;-66
2024/02/20 03:51:10;;;;;;;36.83;11.30;;;9.60;99.90;;;;;;2084447;28;20413;-65
2024/02/20 03:52:11;;;;;;;36.67;10.48;;;9.60;99.90;;;;;;2084212;28;20029;-66
2024/02/20 03:53:11;;;;;;;34.35;10.82;;;9.60;99.90;;;;;;2084790;28;20052;-65
2024/02/20 03:54:12;;;;;;;31.63;11.07;;;9.60;99.90;;;;;;2084243;28;20014;-65
2024/02/20 03:55:12;;;;;;;36.05;10.80;;;9.60;99.90;;;;;;2085248;28;20029;-65
2024/02/20 03:56:13;;;;;;;30.48;10.32;;;9.70;99.90;;;;;;2084154;28;20028;-65
2024/02/20 03:57:13;;;;;;;31.05;10.18;;;9.70;99.90;;;;;;2084207;28;20100;-65
2024/02/20 03:58:14;;;;;;;34.08;11.43;;;9.70;99.90;;;;;;2082191;28;20037;-65
2024/02/20 03:59:15;;;;;;;31.40;10.32;;;9.70;99.90;;;;;;2083523;28;20367;-67
2024/02/20 04:00:16;;;;;;;34.03;9.93;;;9.70;99.90;;;;;;2085177;28;20029;-65
2024/02/20 04:01:16;;;;;;;30.65;9.65;;;9.70;99.90;;;;;;2083334;28;20086;-65
2024/02/20 04:02:17;;;;;;;32.50;9.63;;;9.70;99.90;;;;;;2084691;28;20875;-66
2024/02/20 04:03:17;;;;;;;35.58;9.25;;;9.70;99.90;;;;;;2081800;28;20146;-64
2024/02/20 04:04:20;;;;;;;33.22;9.90;;;9.70;99.90;;;;;;2082631;28;20021;-68
2024/02/20 04:05:20;;;;;;;32.15;9.32;;;9.70;99.90;;;;;;2084067;28;20089;-66
2024/02/20 04:06:21;;;;;;;33.17;8.75;;;9.70;99.90;;;;;;2082917;28;20022;-66
2024/02/20 04:07:21;;;;;;;35.38;8.90;;;9.70;99.90;;;;;;2084084;28;20771;-65
2024/02/20 04:08:22;;;;;;;32.33;8.63;;;9.70;99.90;;;;;;2085616;28;20557;-66
2024/02/20 04:09:22;;;;;;;28.48;8.38;;;9.70;99.90;;;;;;2081758;28;20025;-66
2024/02/20 04:10:23;;;;;;;30.00;7.70;;;9.70;99.90;;;;;;2084371;28;20083;-65
2024/02/20 04:11:23;;;;;;;26.95;8.02;;;9.70;99.90;;;;;;2083401;28;20025;-65
2024/02/20 04:12:24;;;;;;;23.63;7.20;;;9.70;99.90;;;;;;2083005;28;20032;-66
2024/02/20 04:13:25;;;;;;;30.45;8.13;;;9.70;99.90;;;;;;2084356;28;20053;-65
2024/02/20 04:14:26;;;;;;;33.25;7.68;;;9.70;99.90;;;;;;2085141;28;20032;-65
2024/02/20 04:15:26;;;;;;;28.92;7.53;;;9.70;99.90;;;;;;2083547;28;20026;-68
2024/02/20 04:16:27;;;;;;;29.45;7.50;;;9.70;99.90;;;;;;2083665;28;20021;-65
2024/02/20 04:17:27;;;;;;;28.13;6.72;;;9.70;99.90;;;;;;2082279;28;20021;-65
2024/02/20 04:18:28;;;;;;;29.27;7.47;;;9.70;99.90;;;;;;2085254;28;20067;-65
2024/02/20 04:19:28;;;;;;;30.98;7.90;;;9.70;99.90;;;;;;2082140;28;20045;-66
2024/02/20 04:20:32;;;;;;;24.15;7.80;;;9.70;99.90;;;;;;2085484;28;20026;-68
2024/02/20 04:21:32;;;;;;;26.30;7.53;;;9.70;99.90;;;;;;2083036;28;21373;-64
2024/02/20 04:22:33;;;;;;;32.47;7.32;;;9.70;99.90;;;;;;2085460;28;20064;-68
2024/02/20 04:23:34;;;;;;;28.92;7.47;;;9.70;99.90;;;;;;2082508;28;20032;-68
2024/02/20 04:24:34;;;;;;;28.15;7.55;;;9.70;99.90;;;;;;2085782;28;20023;-68
2024/02/20 04:25:35;;;;;;;35.40;7.95;;;9.70;99.90;;;;;;2083913;28;20017;-65
2024/02/20 04:26:35;;;;;;;26.85;7.60;;;9.70;99.90;;;;;;2083699;28;20420;-65
2024/02/20 04:27:38;;;;;;;27.48;8.18;;;9.70;99.90;;;;;;2084974;28;20107;-66
2024/02/20 04:28:38;;;;;;;34.25;8.95;;;9.70;99.90;;;;;;2081883;28;20013;-68
2024/02/20 04:29:39;;;;;;;31.27;8.32;;;9.70;99.90;;;;;;2083947;28;20033;-65
2024/02/20 04:30:44;;;;;;;33.10;7.50;;;9.70;99.90;;;;;;2084727;28;20032;-65
2024/02/20 04:31:44;;;;;;;32.15;8.35;;;9.70;99.90;;;;;;2084975;28;20028;-67
2024/02/20 04:32:46;;;;;;;38.88;9.57;;;9.70;99.90;;;;;;2084162;28;20113;-65
2024/02/20 04:33:46;;;;;;;34.17;8.52;;;9.70;99.90;;;;;;2083763;28;20025;-66
2024/02/20 04:34:47;;;;;;;26.02;7.43;;;9.70;99.90;;;;;;2083006;28;20029;-65
2024/02/20 04:35:48;;;;;;;35.47;8.70;;;9.70;99.90;;;;;;2084272;28;20036;-66
2024/02/20 04:36:49;;;;;;;22.58;7.30;;;9.70;99.90;;;;;;2084044;28;20025;-66
2024/02/20 04:37:50;;;;;;;28.48;8.73;;;9.70;99.90;;;;;;2083901;28;20033;-65
2024/02/20 04:38:56;;;;;;;33.40;7.60;;;9.70;99.90;;;;;;2084452;28;20029;-66
2024/02/20 04:39:56;;;;;;;25.35;8.07;;;9.70;99.90;;;;;;2084155;28;20040;-66
2024/02/20 04:40:57;;;;;;;27.42;6.60;;;9.70;99.90;;;;;;2083893;28;20044;-66
2024/02/20 04:41:58;;;;;;;29.00;7.75;;;9.70;99.90;;;;;;2084181;28;20017;-66
2024/02/20 04:42:59;;;;;;;34.70;8.88;;;9.70;99.90;;;;;;2081017;28;20030;-66
2024/02/20 04:43:59;;;;;;;27.50;7.60;;;9.70;99.90;;;;;;2082479;28;20013;-66
2024/02/20 04:45:00;;;;;;;31.55;7.97;;;9.70;99.90;;;;;;2083019;28;20068;-66
2024/02/20 04:46:04;;;;;;;33.38;8.25;;;9.70;99.90;;;;;;2084038;28;20032;-67
2024/02/20 04:47:06;;;;;;;26.13;7.32;;;9.60;99.90;;;;;;2084292;28;20070;-66
2024/02/20 04:48:07;;;;;;;29.52;7.63;;;9.60;99.90;;;;;;2083827;28;20037;-66
2024/02/20 04:49:07;;;;;;;27.27;7.68;;;9.60;99.90;;;;;;2084929;28;20064;-66
2024/02/20 04:50:08;;;;;;;24.02;6.72;;;9.60;99.90;;;;;;2085572;28;20458;-65
2024/02/20 04:51:09;;;;;;;27.95;8.98;;;9.60;99.90;;;;;;2083857;28;20401;-66
2024/02/20 04:52:09;;;;;;;27.67;7.55;;;9.60;99.90;;;;;;2085312;28;20021;-66
2024/02/20 04:53:10;;;;;;;31.48;7.90;;;9.60;99.90;;;;;;2082674;28;20030;-66
2024/02/20 04:54:10;;;;;;;31.05;7.65;;;9.60;99.90;;;;;;2086600;28;20053;-67
2024/02/20 04:55:11;;;;;;;29.17;7.25;;;9.60;99.90;;;;;;2082877;28;20378;-65
2024/02/20 04:56:11;;;;;;;37.58;8.40;;;9.60;99.90;;;;;;2081538;28;20028;-65
2024/02/20 04:57:12;;;;;;;37.03;7.47;;;9.60;99.90;;;;;;2082774;28;20022;-66
2024/02/20 04:58:12;;;;;;;24.27;7.18;;;9.60;99.90;;;;;;2083682;28;20025;-66
2024/02/20 04:59:13;;;;;;;29.42;7.20;;;9.50;99.90;;;;;;2083382;28;20142;-67
2024/02/20 05:00:14;;;;;;;33.03;7.70;;;9.50;99.90;;;;;;2083355;28;20135;-66
2024/02/20 05:01:18;;;;;;;30.85;7.47;;;9.50;99.90;;;;;;2085468;28;20021;-65
2024/02/20 05:02:19;;;;;;;28.13;8.50;;;9.50;99.90;;;;;;2084919;28;20025;-66
2024/02/20 05:03:19;;;;;;;32.30;8.10;;;9.50;99.90;;;;;;2085428;28;20034;-65
2024/02/20 05:04:20;;;;;;;26.02;6.85;;;9.50;99.90;;;;;;2084415;28;20050;-66
2024/02/20 05:05:20;;;;;;;33.70;8.30;;;9.50;99.90;;;;;;2084746;28;20036;-66
2024/02/20 05:06:21;;;;;;;31.60;7.78;;;9.50;99.90;;;;;;2083315;28;20021;-65
2024/02/20 05:07:21;;;;;;;25.88;8.15;;;9.50;99.90;;;;;;2083386;28;20072;-66
2024/02/20 05:08:22;;;;;;;28.10;8.07;;;9.50;99.90;;;;;;2084971;28;20029;-66
2024/02/20 05:09:23;;;;;;;33.15;8.35;;;9.50;99.90;;;;;;2083389;28;20032;-66
2024/02/20 05:10:24;;;;;;;37.22;8.93;;;9.50;99.90;;;;;;2086541;28;20607;-65
2024/02/20 05:11:25;;;;;;;33.15;8.48;;;9.50;99.90;;;;;;2084717;28;20430;-66
2024/02/20 05:12:25;;;;;;;34.65;8.85;;;9.50;99.90;;;;;;2085048;28;20405;-65
2024/02/20 05:13:26;;;;;;;31.77;8.77;;;9.40;99.90;;;;;;2085321;28;20396;-66
2024/02/20 05:14:26;;;;;;;28.48;8.75;;;9.40;99.90;;;;;;2084542;28;20025;-67